sensor_id;sensor_type;location;lat;lon;timestamp;pressure;altitude;pressure_sealevel;temperature;humidity
40954;BME280;26686;50.130;8.710;2022-07-11T00:00:15;100824.91;;;19.07;62.46
40954;BME280;26686;50.130;8.710;2022-07-11T00:05:17;100828.13;;;19.11;62.58
40954;BME280;26686;50.130;8.710;2022-07-11T00:10:18;100821.22;;;19.08;62.37
40954;BME280;26686;50.130;8.710;2022-07-11T00:15:19;100826.59;;;19.17;62.15
40954;BME280;26686;50.130;8.710;2022-07-11T00:20:21;100819.72;;;19.14;61.85
40954;BME280;26686;50.130;8.710;2022-07-11T00:25:22;100815.16;;;19.15;61.43
40954;BME280;26686;50.130;8.710;2022-07-11T00:30:24;100820.69;;;19.05;62.66
40954;BME280;26686;50.130;8.710;2022-07-11T00:35:25;100809.25;;;19.11;62.48
40954;BME280;26686;50.130;8.710;2022-07-11T00:40:26;100811.13;;;19.19;62.34
40954;BME280;26686;50.130;8.710;2022-07-11T00:45:28;100806.56;;;19.19;62.19
40954;BME280;26686;50.130;8.710;2022-07-11T00:50:30;100803.69;;;19.21;62.32
40954;BME280;26686;50.130;8.710;2022-07-11T00:55:31;100800.97;;;19.21;62.33
40954;BME280;26686;50.130;8.710;2022-07-11T01:00:33;100802.53;;;19.23;62.23
40954;BME280;26686;50.130;8.710;2022-07-11T01:05:34;100795.25;;;19.16;62.58
40954;BME280;26686;50.130;8.710;2022-07-11T01:10:36;100798.28;;;19.21;62.22
40954;BME280;26686;50.130;8.710;2022-07-11T01:15:37;100798.28;;;19.21;61.89
40954;BME280;26686;50.130;8.710;2022-07-11T01:20:39;100777.03;;;19.18;61.77
40954;BME280;26686;50.130;8.710;2022-07-11T01:25:40;100787.16;;;19.24;62.32
40954;BME280;26686;50.130;8.710;2022-07-11T01:30:42;100774.38;;;19.26;62.16
40954;BME280;26686;50.130;8.710;2022-07-11T01:35:43;100774.38;;;19.26;61.93
40954;BME280;26686;50.130;8.710;2022-07-11T01:40:45;100769.78;;;19.27;61.93
40954;BME280;26686;50.130;8.710;2022-07-11T01:45:50;100763.72;;;19.16;62.14
40954;BME280;26686;50.130;8.710;2022-07-11T01:50:52;100771.28;;;19.04;62.43
40954;BME280;26686;50.130;8.710;2022-07-11T01:55:53;100773.66;;;18.99;62.95
40954;BME280;26686;50.130;8.710;2022-07-11T02:01:15;100773.66;;;18.99;62.83
40954;BME280;26686;50.130;8.710;2022-07-11T02:06:17;100773.97;;;18.96;63.00
40954;BME280;26686;50.130;8.710;2022-07-11T02:11:19;100770.41;;;18.96;63.05
40954;BME280;26686;50.130;8.710;2022-07-11T02:16:20;100767.22;;;18.92;63.23
40954;BME280;26686;50.130;8.710;2022-07-11T02:21:23;100758.13;;;18.93;62.62
40954;BME280;26686;50.130;8.710;2022-07-11T02:26:25;100758.97;;;18.94;63.11
40954;BME280;26686;50.130;8.710;2022-07-11T02:31:27;100755.25;;;18.95;62.87
40954;BME280;26686;50.130;8.710;2022-07-11T02:36:29;100758.47;;;18.90;62.91
40954;BME280;26686;50.130;8.710;2022-07-11T02:41:30;100757.59;;;18.89;63.17
40954;BME280;26686;50.130;8.710;2022-07-11T02:46:31;100749.00;;;18.86;63.52
40954;BME280;26686;50.130;8.710;2022-07-11T02:51:33;100751.38;;;18.89;63.59
40954;BME280;26686;50.130;8.710;2022-07-11T02:56:34;100747.69;;;18.90;63.20
40954;BME280;26686;50.130;8.710;2022-07-11T03:01:36;100753.41;;;18.95;63.72
40954;BME280;26686;50.130;8.710;2022-07-11T03:06:38;100743.13;;;18.90;63.82
40954;BME280;26686;50.130;8.710;2022-07-11T03:11:39;100742.44;;;18.97;63.19
40954;BME280;26686;50.130;8.710;2022-07-11T03:16:41;100749.53;;;18.98;63.32
40954;BME280;26686;50.130;8.710;2022-07-11T03:21:42;100757.13;;;19.02;63.56
40954;BME280;26686;50.130;8.710;2022-07-11T03:26:44;100757.78;;;19.04;63.48
40954;BME280;26686;50.130;8.710;2022-07-11T03:31:45;100756.25;;;19.02;63.58
40954;BME280;26686;50.130;8.710;2022-07-11T03:36:47;100745.47;;;19.02;63.69
40954;BME280;26686;50.130;8.710;2022-07-11T03:41:48;100745.81;;;18.90;63.56
40954;BME280;26686;50.130;8.710;2022-07-11T03:46:50;100738.81;;;18.71;64.16
40954;BME280;26686;50.130;8.710;2022-07-11T03:51:52;100741.56;;;18.80;64.39
40954;BME280;26686;50.130;8.710;2022-07-11T03:56:53;100751.13;;;18.82;63.63
40954;BME280;26686;50.130;8.710;2022-07-11T04:01:55;100746.75;;;18.73;64.54
40954;BME280;26686;50.130;8.710;2022-07-11T04:06:56;100741.84;;;18.68;64.27
40954;BME280;26686;50.130;8.710;2022-07-11T04:11:57;100735.78;;;18.66;64.17
40954;BME280;26686;50.130;8.710;2022-07-11T04:16:59;100749.97;;;18.77;64.43
40954;BME280;26686;50.130;8.710;2022-07-11T04:22:01;100737.66;;;18.74;64.69
40954;BME280;26686;50.130;8.710;2022-07-11T04:27:02;100748.63;;;18.81;64.57
40954;BME280;26686;50.130;8.710;2022-07-11T04:32:04;100745.44;;;18.85;64.08
40954;BME280;26686;50.130;8.710;2022-07-11T04:37:07;100740.59;;;18.89;64.35
40954;BME280;26686;50.130;8.710;2022-07-11T04:42:08;100749.50;;;18.89;64.57
40954;BME280;26686;50.130;8.710;2022-07-11T04:47:10;100745.31;;;18.95;64.23
40954;BME280;26686;50.130;8.710;2022-07-11T04:52:12;100752.41;;;18.96;64.12
40954;BME280;26686;50.130;8.710;2022-07-11T04:57:13;100752.06;;;18.99;63.59
40954;BME280;26686;50.130;8.710;2022-07-11T05:02:15;100750.38;;;18.98;63.46
40954;BME280;26686;50.130;8.710;2022-07-11T05:07:18;100752.72;;;19.01;64.63
40954;BME280;26686;50.130;8.710;2022-07-11T05:12:20;100766.91;;;19.12;63.46
40954;BME280;26686;50.130;8.710;2022-07-11T05:17:21;100774.66;;;19.15;63.65
40954;BME280;26686;50.130;8.710;2022-07-11T05:22:24;100772.47;;;19.18;63.78
40954;BME280;26686;50.130;8.710;2022-07-11T05:27:26;100781.94;;;19.31;63.66
40954;BME280;26686;50.130;8.710;2022-07-11T05:32:27;100784.63;;;19.39;63.70
40954;BME280;26686;50.130;8.710;2022-07-11T05:37:36;100773.00;;;19.38;63.60
40954;BME280;26686;50.130;8.710;2022-07-11T05:42:38;100792.91;;;19.54;63.73
40954;BME280;26686;50.130;8.710;2022-07-11T05:47:39;100796.97;;;19.58;62.56
40954;BME280;26686;50.130;8.710;2022-07-11T05:52:40;100793.91;;;19.61;62.99
40954;BME280;26686;50.130;8.710;2022-07-11T05:57:42;100794.25;;;19.66;62.70
40954;BME280;26686;50.130;8.710;2022-07-11T06:02:43;100791.19;;;19.69;61.84
40954;BME280;26686;50.130;8.710;2022-07-11T06:07:46;100791.19;;;19.69;62.46
40954;BME280;26686;50.130;8.710;2022-07-11T06:13:06;100800.69;;;19.82;61.55
40954;BME280;26686;50.130;8.710;2022-07-11T06:18:08;100789.53;;;19.85;61.63
40954;BME280;26686;50.130;8.710;2022-07-11T06:23:09;100784.81;;;19.87;61.45
40954;BME280;26686;50.130;8.710;2022-07-11T06:28:11;100787.84;;;19.84;61.28
40954;BME280;26686;50.130;8.710;2022-07-11T06:33:15;100792.72;;;19.80;60.73
40954;BME280;26686;50.130;8.710;2022-07-11T06:38:17;100790.72;;;19.82;61.93
40954;BME280;26686;50.130;8.710;2022-07-11T06:43:18;100795.75;;;19.93;61.40
40954;BME280;26686;50.130;8.710;2022-07-11T06:48:20;100773.63;;;20.06;61.10
40954;BME280;26686;50.130;8.710;2022-07-11T06:53:22;100797.50;;;20.34;59.61
40954;BME280;26686;50.130;8.710;2022-07-11T06:58:24;100792.44;;;20.39;60.07
40954;BME280;26686;50.130;8.710;2022-07-11T07:03:34;100794.75;;;20.51;58.52
40954;BME280;26686;50.130;8.710;2022-07-11T07:08:36;100790.81;;;20.61;58.49
40954;BME280;26686;50.130;8.710;2022-07-11T07:13:38;100780.44;;;20.81;57.12
40954;BME280;26686;50.130;8.710;2022-07-11T07:18:39;100791.16;;;20.98;56.61
40954;BME280;26686;50.130;8.710;2022-07-11T07:23:44;100797.28;;;21.15;56.75
40954;BME280;26686;50.130;8.710;2022-07-11T07:28:45;100800.78;;;21.24;55.75
40954;BME280;26686;50.130;8.710;2022-07-11T07:33:48;100793.44;;;21.32;55.32
40954;BME280;26686;50.130;8.710;2022-07-11T07:38:49;100798.28;;;21.45;55.50
40954;BME280;26686;50.130;8.710;2022-07-11T07:43:50;100791.03;;;21.37;54.84
40954;BME280;26686;50.130;8.710;2022-07-11T07:48:52;100801.63;;;21.47;54.83
40954;BME280;26686;50.130;8.710;2022-07-11T07:53:54;100787.88;;;21.72;54.59
40954;BME280;26686;50.130;8.710;2022-07-11T07:58:57;100791.56;;;21.79;54.00
40954;BME280;26686;50.130;8.710;2022-07-11T08:03:58;100794.03;;;21.66;53.96
40954;BME280;26686;50.130;8.710;2022-07-11T08:09:03;100787.38;;;21.53;54.21
40954;BME280;26686;50.130;8.710;2022-07-11T08:14:05;100786.41;;;21.46;54.52
40954;BME280;26686;50.130;8.710;2022-07-11T08:19:08;100791.53;;;21.41;55.15
40954;BME280;26686;50.130;8.710;2022-07-11T08:24:12;100797.41;;;21.45;53.33
40954;BME280;26686;50.130;8.710;2022-07-11T08:29:13;100796.94;;;21.41;53.09
40954;BME280;26686;50.130;8.710;2022-07-11T08:34:15;100797.59;;;21.43;53.80
40954;BME280;26686;50.130;8.710;2022-07-11T08:39:17;100799.81;;;21.63;53.75
40954;BME280;26686;50.130;8.710;2022-07-11T08:44:19;100793.16;;;22.03;52.07
40954;BME280;26686;50.130;8.710;2022-07-11T08:49:20;100797.69;;;22.41;51.60
40954;BME280;26686;50.130;8.710;2022-07-11T08:54:23;100796.56;;;22.20;51.69
40954;BME280;26686;50.130;8.710;2022-07-11T08:59:25;100794.75;;;22.28;52.37
40954;BME280;26686;50.130;8.710;2022-07-11T09:04:29;100788.13;;;22.15;51.95
40954;BME280;26686;50.130;8.710;2022-07-11T09:09:31;100792.53;;;22.16;52.18
40954;BME280;26686;50.130;8.710;2022-07-11T09:14:33;100783.84;;;22.21;52.29
40954;BME280;26686;50.130;8.710;2022-07-11T09:19:35;100799.25;;;22.05;51.76
40954;BME280;26686;50.130;8.710;2022-07-11T09:24:55;100804.91;;;21.81;52.27
40954;BME280;26686;50.130;8.710;2022-07-11T09:35:18;100781.31;;;21.51;53.04
40954;BME280;26686;50.130;8.710;2022-07-11T09:40:20;100775.56;;;21.46;53.13
40954;BME280;26686;50.130;8.710;2022-07-11T09:45:25;100786.41;;;21.69;53.85
40954;BME280;26686;50.130;8.710;2022-07-11T09:50:29;100779.31;;;21.83;53.07
40954;BME280;26686;50.130;8.710;2022-07-11T09:55:39;100791.50;;;22.17;52.60
40954;BME280;26686;50.130;8.710;2022-07-11T10:00:52;100782.78;;;22.67;51.17
40954;BME280;26686;50.130;8.710;2022-07-11T10:05:54;100769.81;;;23.20;49.98
40954;BME280;26686;50.130;8.710;2022-07-11T10:10:56;100770.97;;;23.54;48.37
40954;BME280;26686;50.130;8.710;2022-07-11T10:15:58;100764.88;;;23.80;48.87
40954;BME280;26686;50.130;8.710;2022-07-11T10:21:09;100773.34;;;23.92;47.01
40954;BME280;26686;50.130;8.710;2022-07-11T10:31:33;100770.03;;;23.97;46.89
40954;BME280;26686;50.130;8.710;2022-07-11T10:36:59;100774.53;;;23.83;47.44
40954;BME280;26686;50.130;8.710;2022-07-11T10:42:04;100781.47;;;24.21;46.33
40954;BME280;26686;50.130;8.710;2022-07-11T10:47:42;100772.94;;;24.65;45.76
40954;BME280;26686;50.130;8.710;2022-07-11T10:52:56;100773.59;;;24.81;45.50
40954;BME280;26686;50.130;8.710;2022-07-11T11:03:24;100773.13;;;23.87;47.05
40954;BME280;26686;50.130;8.710;2022-07-11T11:13:34;100778.00;;;23.98;46.74
40954;BME280;26686;50.130;8.710;2022-07-11T11:18:41;100768.97;;;24.26;45.46
40954;BME280;26686;50.130;8.710;2022-07-11T11:24:01;100760.69;;;24.48;46.23
40954;BME280;26686;50.130;8.710;2022-07-11T11:29:07;100760.53;;;25.38;44.12
40954;BME280;26686;50.130;8.710;2022-07-11T11:34:09;100744.16;;;25.58;43.32
40954;BME280;26686;50.130;8.710;2022-07-11T11:39:21;100752.53;;;25.70;43.09
40954;BME280;26686;50.130;8.710;2022-07-11T11:44:22;100771.97;;;25.06;44.12
40954;BME280;26686;50.130;8.710;2022-07-11T11:49:24;100767.25;;;24.60;44.20
40954;BME280;26686;50.130;8.710;2022-07-11T11:54:25;100776.19;;;24.54;45.01
40954;BME280;26686;50.130;8.710;2022-07-11T11:59:30;100777.78;;;24.77;43.82
40954;BME280;26686;50.130;8.710;2022-07-11T12:04:34;100770.28;;;24.92;44.18
40954;BME280;26686;50.130;8.710;2022-07-11T12:09:37;100766.22;;;24.68;44.43
40954;BME280;26686;50.130;8.710;2022-07-11T12:14:47;100782.97;;;24.23;45.36
40954;BME280;26686;50.130;8.710;2022-07-11T12:19:49;100763.16;;;24.01;45.94
40954;BME280;26686;50.130;8.710;2022-07-11T12:24:51;100767.84;;;24.14;46.33
40954;BME280;26686;50.130;8.710;2022-07-11T12:29:53;100764.13;;;24.63;45.87
40954;BME280;26686;50.130;8.710;2022-07-11T12:34:54;100755.91;;;25.38;43.50
40954;BME280;26686;50.130;8.710;2022-07-11T12:39:59;100736.41;;;25.62;43.01
40954;BME280;26686;50.130;8.710;2022-07-11T12:45:10;100746.06;;;25.44;43.21
40954;BME280;26686;50.130;8.710;2022-07-11T12:50:26;100746.47;;;25.21;42.68
40954;BME280;26686;50.130;8.710;2022-07-11T12:55:31;100752.28;;;25.11;43.47
40954;BME280;26686;50.130;8.710;2022-07-11T13:00:37;100745.81;;;25.12;43.55
40954;BME280;26686;50.130;8.710;2022-07-11T13:05:50;100751.75;;;25.49;43.29
40954;BME280;26686;50.130;8.710;2022-07-11T13:10:51;100740.97;;;25.88;42.18
40954;BME280;26686;50.130;8.710;2022-07-11T13:16:06;100737.81;;;25.98;42.08
40954;BME280;26686;50.130;8.710;2022-07-11T13:21:09;100732.38;;;26.04;41.96
40954;BME280;26686;50.130;8.710;2022-07-11T13:26:11;100732.28;;;26.31;41.00
40954;BME280;26686;50.130;8.710;2022-07-11T13:31:13;100733.03;;;26.52;41.61
40954;BME280;26686;50.130;8.710;2022-07-11T13:36:17;100726.25;;;26.61;40.52
40954;BME280;26686;50.130;8.710;2022-07-11T13:41:18;100723.75;;;26.59;40.69
40954;BME280;26686;50.130;8.710;2022-07-11T13:46:20;100730.75;;;26.49;40.50
40954;BME280;26686;50.130;8.710;2022-07-11T13:51:29;100729.75;;;26.36;41.07
40954;BME280;26686;50.130;8.710;2022-07-11T13:56:31;100733.50;;;26.42;40.91
40954;BME280;26686;50.130;8.710;2022-07-11T14:01:32;100734.13;;;26.37;40.38
40954;BME280;26686;50.130;8.710;2022-07-11T14:06:34;100728.56;;;26.12;41.45
40954;BME280;26686;50.130;8.710;2022-07-11T14:11:55;100724.75;;;26.26;40.99
40954;BME280;26686;50.130;8.710;2022-07-11T14:16:57;100731.88;;;26.27;40.29
40954;BME280;26686;50.130;8.710;2022-07-11T14:21:59;100726.44;;;26.21;40.32
40954;BME280;26686;50.130;8.710;2022-07-11T14:27:01;100723.06;;;26.25;40.53
40954;BME280;26686;50.130;8.710;2022-07-11T14:32:03;100726.88;;;26.18;41.00
40954;BME280;26686;50.130;8.710;2022-07-11T14:37:05;100715.78;;;26.13;41.13
40954;BME280;26686;50.130;8.710;2022-07-11T14:42:06;100715.00;;;25.79;41.92
40954;BME280;26686;50.130;8.710;2022-07-11T14:47:29;100704.72;;;25.74;41.56
40954;BME280;26686;50.130;8.710;2022-07-11T14:52:30;100710.63;;;25.57;42.03
40954;BME280;26686;50.130;8.710;2022-07-11T14:57:32;100722.34;;;25.58;42.20
40954;BME280;26686;50.130;8.710;2022-07-11T15:02:33;100709.34;;;25.73;41.72
40954;BME280;26686;50.130;8.710;2022-07-11T15:07:53;100707.25;;;25.75;41.64
40954;BME280;26686;50.130;8.710;2022-07-11T15:13:14;100724.44;;;25.76;41.46
40954;BME280;26686;50.130;8.710;2022-07-11T15:18:15;100724.44;;;25.69;41.42
40954;BME280;26686;50.130;8.710;2022-07-11T15:23:17;100718.34;;;25.74;41.30
40954;BME280;26686;50.130;8.710;2022-07-11T15:28:18;100724.03;;;25.72;42.31
40954;BME280;26686;50.130;8.710;2022-07-11T15:33:29;100729.72;;;25.51;42.47
40954;BME280;26686;50.130;8.710;2022-07-11T15:38:31;100731.59;;;25.50;42.61
40954;BME280;26686;50.130;8.710;2022-07-11T15:43:33;100729.91;;;25.56;42.09
40954;BME280;26686;50.130;8.710;2022-07-11T15:48:34;100719.63;;;25.71;42.31
40954;BME280;26686;50.130;8.710;2022-07-11T15:53:35;100720.69;;;25.57;41.76
40954;BME280;26686;50.130;8.710;2022-07-11T15:58:37;100719.44;;;25.53;42.50
40954;BME280;26686;50.130;8.710;2022-07-11T16:03:45;100721.53;;;25.44;42.80
40954;BME280;26686;50.130;8.710;2022-07-11T16:08:46;100735.59;;;25.48;42.35
40954;BME280;26686;50.130;8.710;2022-07-11T16:13:48;100746.28;;;25.43;43.26
40954;BME280;26686;50.130;8.710;2022-07-11T16:18:50;100736.63;;;25.27;43.41
40954;BME280;26686;50.130;8.710;2022-07-11T16:23:54;100730.72;;;25.10;43.73
40954;BME280;26686;50.130;8.710;2022-07-11T16:28:56;100735.75;;;25.06;43.75
40954;BME280;26686;50.130;8.710;2022-07-11T16:33:57;100738.25;;;25.01;43.59
40954;BME280;26686;50.130;8.710;2022-07-11T16:39:00;100745.38;;;24.95;43.90
40954;BME280;26686;50.130;8.710;2022-07-11T16:44:20;100737.84;;;25.11;43.86
40954;BME280;26686;50.130;8.710;2022-07-11T16:49:22;100733.22;;;25.04;43.44
40954;BME280;26686;50.130;8.710;2022-07-11T16:54:23;100725.91;;;24.98;44.19
40954;BME280;26686;50.130;8.710;2022-07-11T16:59:25;100738.25;;;25.08;44.02
40954;BME280;26686;50.130;8.710;2022-07-11T17:04:26;100743.28;;;24.91;43.77
40954;BME280;26686;50.130;8.710;2022-07-11T17:09:28;100746.63;;;24.93;44.12
40954;BME280;26686;50.130;8.710;2022-07-11T17:14:30;100747.03;;;24.90;44.36
40954;BME280;26686;50.130;8.710;2022-07-11T17:19:31;100750.34;;;24.78;44.37
40954;BME280;26686;50.130;8.710;2022-07-11T17:24:35;100750.94;;;24.67;44.52
40954;BME280;26686;50.130;8.710;2022-07-11T17:29:36;100744.84;;;24.58;44.98
40954;BME280;26686;50.130;8.710;2022-07-11T17:34:38;100760.22;;;24.38;46.62
40954;BME280;26686;50.130;8.710;2022-07-11T17:39:39;100753.50;;;24.33;45.38
40954;BME280;26686;50.130;8.710;2022-07-11T17:44:41;100749.44;;;24.16;45.32
40954;BME280;26686;50.130;8.710;2022-07-11T17:49:42;100761.56;;;24.13;45.64
40954;BME280;26686;50.130;8.710;2022-07-11T17:54:43;100757.72;;;24.01;45.60
40954;BME280;26686;50.130;8.710;2022-07-11T17:59:45;100766.56;;;23.81;45.14
40954;BME280;26686;50.130;8.710;2022-07-11T18:04:47;100766.28;;;23.70;46.38
40954;BME280;26686;50.130;8.710;2022-07-11T18:09:55;100770.78;;;23.56;47.32
40954;BME280;26686;50.130;8.710;2022-07-11T18:14:57;100765.81;;;23.38;47.42
40954;BME280;26686;50.130;8.710;2022-07-11T18:19:59;100787.53;;;23.38;47.51
40954;BME280;26686;50.130;8.710;2022-07-11T18:25:03;100779.13;;;23.33;47.82
40954;BME280;26686;50.130;8.710;2022-07-11T18:30:07;100776.59;;;23.31;47.85
40954;BME280;26686;50.130;8.710;2022-07-11T18:35:17;100781.13;;;23.24;48.07
40954;BME280;26686;50.130;8.710;2022-07-11T18:40:18;100767.25;;;23.12;48.13
40954;BME280;26686;50.130;8.710;2022-07-11T18:45:39;100769.66;;;23.07;48.13
40954;BME280;26686;50.130;8.710;2022-07-11T18:50:41;100778.31;;;22.95;48.66
40954;BME280;26686;50.130;8.710;2022-07-11T18:55:43;100779.44;;;22.86;48.93
40954;BME280;26686;50.130;8.710;2022-07-11T19:00:44;100786.94;;;22.84;49.30
40954;BME280;26686;50.130;8.710;2022-07-11T19:05:48;100787.28;;;22.74;49.57
40954;BME280;26686;50.130;8.710;2022-07-11T19:10:50;100798.03;;;22.68;50.28
40954;BME280;26686;50.130;8.710;2022-07-11T19:15:52;100793.94;;;22.57;50.40
40954;BME280;26686;50.130;8.710;2022-07-11T19:20:53;100786.09;;;22.47;50.64
40954;BME280;26686;50.130;8.710;2022-07-11T19:25:55;100789.28;;;22.36;51.40
40954;BME280;26686;50.130;8.710;2022-07-11T19:30:56;100798.16;;;22.30;51.56
40954;BME280;26686;50.130;8.710;2022-07-11T19:35:57;100809.06;;;22.21;51.42
40954;BME280;26686;50.130;8.710;2022-07-11T19:40:59;100819.34;;;22.11;51.79
40954;BME280;26686;50.130;8.710;2022-07-11T19:46:01;100819.81;;;22.00;52.10
40954;BME280;26686;50.130;8.710;2022-07-11T19:51:03;100831.66;;;21.99;52.06
40954;BME280;26686;50.130;8.710;2022-07-11T19:56:05;100823.88;;;21.81;52.90
40954;BME280;26686;50.130;8.710;2022-07-11T20:01:25;100832.88;;;21.81;53.27
40954;BME280;26686;50.130;8.710;2022-07-11T20:06:27;100834.63;;;21.74;53.24
40954;BME280;26686;50.130;8.710;2022-07-11T20:11:28;100831.97;;;21.66;52.94
40954;BME280;26686;50.130;8.710;2022-07-11T20:16:30;100829.34;;;21.58;53.80
40954;BME280;26686;50.130;8.710;2022-07-11T20:21:32;100830.25;;;21.50;54.24
40954;BME280;26686;50.130;8.710;2022-07-11T20:26:34;100834.00;;;21.41;54.70
40954;BME280;26686;50.130;8.710;2022-07-11T20:31:36;100843.03;;;21.33;55.08
40954;BME280;26686;50.130;8.710;2022-07-11T20:36:37;100850.84;;;21.28;55.06
40954;BME280;26686;50.130;8.710;2022-07-11T20:41:39;100852.59;;;21.21;55.51
40954;BME280;26686;50.130;8.710;2022-07-11T20:46:40;100855.19;;;21.14;55.59
40954;BME280;26686;50.130;8.710;2022-07-11T20:51:42;100862.13;;;21.08;55.90
40954;BME280;26686;50.130;8.710;2022-07-11T20:56:43;100864.88;;;21.00;55.90
40954;BME280;26686;50.130;8.710;2022-07-11T21:01:45;100874.75;;;20.93;56.06
40954;BME280;26686;50.130;8.710;2022-07-11T21:06:46;100868.34;;;20.86;56.01
40954;BME280;26686;50.130;8.710;2022-07-11T21:11:48;100869.22;;;20.78;56.99
40954;BME280;26686;50.130;8.710;2022-07-11T21:16:49;100870.22;;;20.77;57.13
40954;BME280;26686;50.130;8.710;2022-07-11T21:21:55;100871.13;;;20.69;57.01
40954;BME280;26686;50.130;8.710;2022-07-11T21:26:57;100880.56;;;20.65;56.87
40954;BME280;26686;50.130;8.710;2022-07-11T21:31:58;100876.84;;;20.58;57.30
40954;BME280;26686;50.130;8.710;2022-07-11T21:37:00;100883.47;;;20.55;57.26
40954;BME280;26686;50.130;8.710;2022-07-11T21:42:01;100877.06;;;20.48;57.48
40954;BME280;26686;50.130;8.710;2022-07-11T21:47:03;100884.00;;;20.42;57.89
40954;BME280;26686;50.130;8.710;2022-07-11T21:52:05;100888.06;;;20.46;57.63
40954;BME280;26686;50.130;8.710;2022-07-11T21:57:06;100896.53;;;20.43;57.90
40954;BME280;26686;50.130;8.710;2022-07-11T22:02:07;100884.00;;;20.34;58.05
40954;BME280;26686;50.130;8.710;2022-07-11T22:07:09;100888.41;;;20.35;58.01
40954;BME280;26686;50.130;8.710;2022-07-11T22:12:10;100885.88;;;20.34;58.27
40954;BME280;26686;50.130;8.710;2022-07-11T22:17:12;100889.59;;;20.33;58.58
40954;BME280;26686;50.130;8.710;2022-07-11T22:22:13;100884.72;;;20.20;58.61
40954;BME280;26686;50.130;8.710;2022-07-11T22:27:15;100892.19;;;20.18;58.78
40954;BME280;26686;50.130;8.710;2022-07-11T22:32:16;100894.53;;;20.12;59.32
40954;BME280;26686;50.130;8.710;2022-07-11T22:37:18;100899.94;;;20.12;58.72
40954;BME280;26686;50.130;8.710;2022-07-11T22:42:19;100906.03;;;20.06;59.10
40954;BME280;26686;50.130;8.710;2022-07-11T22:47:21;100904.31;;;20.05;59.48
40954;BME280;26686;50.130;8.710;2022-07-11T22:52:42;100905.53;;;20.03;59.66
40954;BME280;26686;50.130;8.710;2022-07-11T22:57:50;100914.13;;;19.98;59.57
40954;BME280;26686;50.130;8.710;2022-07-11T23:02:52;100902.00;;;19.94;59.79
40954;BME280;26686;50.130;8.710;2022-07-11T23:07:54;100902.31;;;19.91;60.00
40954;BME280;26686;50.130;8.710;2022-07-11T23:12:56;100915.47;;;19.86;59.48
40954;BME280;26686;50.130;8.710;2022-07-11T23:17:58;100918.84;;;19.71;60.55
40954;BME280;26686;50.130;8.710;2022-07-11T23:22:59;100918.84;;;19.71;61.30
40954;BME280;26686;50.130;8.710;2022-07-11T23:28:02;100915.59;;;19.59;61.79
40954;BME280;26686;50.130;8.710;2022-07-11T23:33:04;100902.94;;;19.60;61.54
40954;BME280;26686;50.130;8.710;2022-07-11T23:38:05;100919.63;;;19.55;61.77
40954;BME280;26686;50.130;8.710;2022-07-11T23:43:07;100916.75;;;19.40;62.67
40954;BME280;26686;50.130;8.710;2022-07-11T23:48:08;100912.38;;;19.48;62.35
40954;BME280;26686;50.130;8.710;2022-07-11T23:53:10;100910.34;;;19.50;61.91
40954;BME280;26686;50.130;8.710;2022-07-11T23:58:11;100914.56;;;19.52;62.30
